| Date | Time | Temp. (oF) | Dew Point (oF) | Rel. Hum. (%) | Press. (in.) | Wind Dir. | Wind Speed (mph) | Hourly Rainfall (in.) |
|
|---|---|---|---|---|---|---|---|---|---|
| 1 | 03/09 | 00:00 | 31 | 20 | 64 | 29.81 | W | 20 | 0.00 |
| 2 | 03/08 | 23:00 | 31 | 19 | 61 | 29.77 | WNW | 11 | 0.00 |
| 3 | 03/08 | 22:00 | 33 | 19 | 58 | 29.73 | W | 5 | 0.00 |
| 4 | 03/08 | 21:00 | 34 | 21 | 61 | 29.64 | S | 12 | 0.00 |
| 5 | 03/08 | 20:00 | 36 | 26 | 67 | 29.57 | W | 10 | 0.00 |
| 6 | 03/08 | 19:00 | 39 | 33 | 80 | 29.48 | WSW | 10 | 0.00 |
| 7 | 03/08 | 18:00 | 41 | 37 | 87 | 29.39 | W | 19 | 0.02 |
| 8 | 03/08 | 17:00 | 48 | 42 | 82 | 29.25 | SW | 17 | 0.00 |
| 9 | 03/08 | 16:00 | 61 | 57 | 88 | 29.17 | SSW | 16 | 0.01 |
| 10 | 03/08 | 15:00 | 59 | 59 | 100 | 29.20 | SSW | 7 | 0.08 |
| 11 | 03/08 | 14:00 | 58 | 58 | 100 | 29.21 | SE | 7 | 0.02 |
| 12 | 03/08 | 13:00 | 55 | 54 | 100 | 29.30 | SE | 5 | 0.02 |
| 13 | 03/08 | 12:00 | 53 | 53 | 100 | 29.36 | ESE | 0 | 0.06 |
| 14 | 03/08 | 11:00 | 49 | 49 | 100 | 29.42 | NE | 4 | 0.03 |
| 15 | 03/08 | 10:00 | 46 | 45 | 100 | 29.48 | NNE | 3 | 0.01 |
| 16 | 03/08 | 09:00 | 45 | 45 | 100 | 29.55 | ESE | 2 | 0.00 |
| 17 | 03/08 | 08:00 | 43 | 42 | 100 | 29.59 | E | 1 | 0.00 |
| 18 | 03/08 | 07:00 | 42 | 41 | 100 | 29.62 | E | 0 | 0.00 |
| 19 | 03/08 | 06:00 | 42 | 41 | 100 | 29.65 | ESE | 4 | 0.00 |
| 20 | 03/08 | 05:00 | 42 | 41 | 100 | 29.69 | SSW | 2 | 0.01 |
| 21 | 03/08 | 04:00 | 42 | 41 | 100 | 29.70 | SW | 0 | 0.00 |
| 22 | 03/08 | 03:00 | 42 | 41 | 100 | 29.70 | NNW | 0 | 0.00 |
| 23 | 03/08 | 02:00 | 42 | 41 | 100 | 29.71 | W | 1 | 0.00 |
| 24 | 03/08 | 01:00 | 42 | 41 | 100 | 29.71 | NW | 3 | 0.00 |